Latest Weather Observations for Georgetown Airport

IDQ60801

Issued at 11:32 pm EST Monday 26 June 2017 (issued every 30 minutes, with the page automatically refreshed every 10 minutes)

About weather observations | Map of weather stations | Latest weather observations for QLD | Other Formats
Station Details ID: 030124 Name: GEORGETOWN AIRPORT Lat: -18.30 Lon: 143.53 Height: 301.77 m
Data from the previous 72 hours. | See also: Recent months at Georgetown Airport
Date/Time
EST
Temp
°C
App
Temp
°C
Dew
Point
°C
Rel
Hum
%
Delta-T
°C
Wind Press
QNH
hPa
Press
MSL
hPa
Rain since
9am
mm
Dir  Spd
km/h
Gust
km/h
Spd
kts
Gust
kts
26/11:30pm 20.1 19.6 12.8 63 4.2 E 7 11 4 6 1018.9 - 0.0
26/11:00pm 20.9 19.8 13.1 61 4.5 E 11 19 6 10 1019.0 - 0.0
26/10:30pm 21.3 19.9 13.5 61 4.6 E 13 19 7 10 1018.8 - 0.0
26/10:00pm 21.3 20.5 14.0 63 4.3 E 11 17 6 9 1018.6 - 0.0
26/09:30pm 21.6 20.5 14.3 63 4.3 E 13 20 7 11 1018.6 - 0.0
26/09:00pm 21.4 21.1 14.3 64 4.2 ESE 9 13 5 7 1018.1 1017.0 0.0
26/08:30pm 21.4 20.9 13.8 62 4.5 ESE 9 11 5 6 1017.7 - 0.0
26/08:00pm 22.8 21.6 14.1 58 5.2 E 13 17 7 9 1017.3 - 0.0
26/07:30pm 22.6 21.2 13.4 56 5.4 E 13 19 7 10 1017.0 - 0.0
26/07:00pm 22.9 21.7 12.8 53 5.9 E 11 15 6 8 1016.8 - 0.0
26/06:30pm 23.1 22.5 12.4 51 6.2 ENE 7 9 4 5 1016.6 - 0.0
26/06:00pm 24.6 22.9 12.5 46 7.0 ENE 13 20 7 11 1016.3 1015.2 0.0
26/05:30pm 26.0 23.4 12.1 42 8.1 E 17 26 9 14 1016.2 - 0.0
26/05:00pm 26.7 23.8 12.4 41 8.4 E 19 24 10 13 1016.1 - 0.0
26/04:30pm 27.0 24.4 11.9 39 8.8 E 17 30 9 16 1016.0 - 0.0
26/04:00pm 27.5 24.9 11.9 38 9.1 ENE 17 30 9 16 1015.9 - 0.0
26/03:30pm 27.4 24.5 12.2 39 8.9 E 19 32 10 17 1016.1 - 0.0
26/03:00pm 27.5 23.7 12.3 39 8.9 ENE 24 35 13 19 1016.1 1015.0 0.0
26/02:30pm 26.9 23.7 11.8 39 8.8 E 20 28 11 15 1016.4 - 0.0
26/02:00pm 27.2 24.0 12.0 38 8.9 ENE 20 32 11 17 1016.7 - 0.0
26/01:30pm 27.1 24.7 12.7 41 8.5 E 17 26 9 14 1017.0 - 0.0
26/01:00pm 25.7 22.2 12.2 43 7.9 ENE 22 32 12 17 1017.4 - 0.0
26/12:30pm 25.7 22.3 12.5 44 7.7 ENE 22 33 12 18 1018.0 - 0.0
26/12:00pm 25.0 21.6 12.6 46 7.2 E 22 32 12 17 1018.6 1017.5 0.0
26/11:30am 25.0 21.0 12.9 47 7.1 ENE 26 35 14 19 1018.8 - 0.0
26/11:00am 24.0 19.5 12.6 49 6.6 E 28 41 15 22 1018.9 - 0.0
26/10:30am 23.6 19.9 12.6 50 6.4 E 24 39 13 21 1019.1 - 0.0
26/10:00am 23.5 19.3 13.4 53 5.9 ENE 28 37 15 20 1019.2 - 0.0
26/09:30am 22.3 20.2 13.6 58 5.1 E 17 28 9 15 1019.1 - 0.0
26/09:00am 20.4 18.8 12.9 62 4.3 ESE 13 20 7 11 1019.0 1017.9 0.0
26/08:30am 18.6 17.8 13.0 70 3.2 SE 9 15 5 8 1018.6 - 0.0
26/08:00am 16.1 16.1 12.5 79 2.0 S 4 7 2 4 1018.4 - 0.0
26/07:30am 14.3 13.5 11.8 85 1.4 S 7 11 4 6 1017.8 - 0.0
26/07:00am 14.4 13.9 12.1 86 1.3 SSE 6 7 3 4 1017.6 - 0.0
26/06:30am 15.9 14.6 12.6 81 1.8 E 11 17 6 9 1017.2 - 0.0
26/06:00am 15.9 14.3 12.8 82 1.7 E 13 15 7 8 1016.9 1015.8 0.0
26/05:30am 14.9 14.3 12.2 84 1.5 ENE 7 11 4 6 1016.9 - 0.0
26/05:00am 14.8 14.1 12.1 84 1.5 E 7 11 4 6 1016.8 - 0.0
26/04:30am 15.1 14.5 12.2 83 1.6 E 7 11 4 6 1016.8 - 0.0
26/04:00am 15.5 14.1 12.3 81 1.8 ESE 11 13 6 7 1016.7 - 0.0
26/03:30am 16.2 14.9 12.4 78 2.1 ESE 11 13 6 7 1016.8 - 0.0
26/03:00am 16.9 14.9 12.8 77 2.3 ESE 15 19 8 10 1016.8 1015.7 0.0
26/02:30am 14.5 13.5 12.2 86 1.3 ESE 9 15 5 8 1016.6 - 0.0
26/02:00am 13.9 13.2 11.4 85 1.4 ESE 6 9 3 5 1016.5 - 0.0
26/01:30am 14.2 13.4 11.2 82 1.6 ESE 6 7 3 4 1016.6 - 0.0
26/01:00am 15.1 14.2 10.5 74 2.5 SE 6 9 3 5 1016.8 - 0.0
26/12:30am 17.6 16.8 11.6 68 3.3 SSE 7 7 4 4 1016.6 - 0.0
26/12:00am 18.5 17.4 11.8 65 3.7 ESE 9 11 5 6 1016.5 1015.4 0.0
 
Date/Time
EST
Temp
°C
App
Temp
°C
Dew
Point
°C
Rel
Hum
%
Delta-T
°C
Wind Press
QNH
hPa
Press
MSL
hPa
Rain since
9am
mm
Dir  Spd
km/h
Gust
km/h
Spd
kts
Gust
kts
25/11:30pm 18.9 17.8 11.9 64 3.9 ESE 9 13 5 7 1016.6 - 0.0
25/11:00pm 19.3 17.8 11.8 62 4.2 ESE 11 13 6 7 1016.7 - 0.0
25/10:30pm 18.9 17.8 11.9 64 3.9 ESE 9 13 5 7 1016.8 - 0.0
25/10:00pm 19.1 18.4 11.9 63 4.0 E 7 9 4 5 1017.0 - 0.0
25/09:30pm 20.2 18.9 12.4 61 4.4 ESE 11 15 6 8 1016.9 - 0.0
25/09:00pm 19.9 19.2 11.9 60 4.5 SE 7 9 4 5 1016.7 1015.6 0.0
25/08:30pm 21.1 20.4 12.0 56 5.2 SE 7 9 4 5 1016.3 - 0.0
25/08:00pm 21.9 21.0 12.5 55 5.4 SSE 9 13 5 7 1016.0 - 0.0
25/07:30pm 22.2 21.3 12.5 54 5.6 SSE 9 11 5 6 1015.8 - 0.0
25/07:00pm 22.6 22.0 12.3 52 5.9 SSE 7 11 4 6 1015.4 - 0.0
25/06:30pm 23.1 22.4 12.1 50 6.3 SSE 7 11 4 6 1015.0 - 0.0
25/06:00pm 24.5 23.7 11.8 45 7.3 SE 7 9 4 5 1014.9 1013.8 0.0
25/05:30pm 26.3 25.6 12.0 41 8.3 SE 7 13 4 7 1014.6 - 0.0
25/05:00pm 27.2 26.6 12.4 40 8.7 ESE 7 11 4 6 1014.2 - 0.0
25/04:30pm 27.5 26.0 11.9 38 9.1 ESE 11 17 6 9 1014.2 - 0.0
25/04:00pm 27.8 26.3 11.8 37 9.3 ESE 11 19 6 10 1014.1 - 0.0
25/03:30pm 27.6 26.1 12.0 38 9.1 ESE 11 20 6 11 1014.3 - 0.0
25/03:00pm 27.8 27.0 11.8 37 9.3 SE 7 13 4 7 1014.3 1013.2 0.0
25/02:30pm 27.8 26.7 11.8 37 9.3 SE 9 17 5 9 1014.6 - 0.0
25/02:00pm 27.2 26.3 11.2 36 9.2 SSE 7 19 4 10 1014.9 - 0.0
25/01:30pm 27.2 25.6 11.7 38 9.0 SE 11 19 6 10 1015.3 - 0.0
25/01:00pm 26.7 25.4 11.2 38 8.9 E 9 20 5 11 1015.8 - 0.0
25/12:30pm 26.1 25.2 11.4 39 8.5 E 7 15 4 8 1016.2 - 0.0
25/12:00pm 25.5 23.7 12.0 43 7.8 SE 13 20 7 11 1016.6 1015.5 0.0
25/11:30am 26.3 24.8 13.1 44 7.8 E 13 24 7 13 1017.0 - 0.0
25/11:00am 25.7 23.5 13.2 46 7.4 E 17 24 9 13 1017.4 - 0.0
25/10:30am 24.5 22.6 13.1 49 6.7 ESE 15 24 8 13 1017.7 - 0.0
25/10:00am 23.8 21.5 13.1 51 6.3 ESE 17 26 9 14 1018.0 - 0.0
25/09:30am 22.9 20.4 13.4 55 5.6 E 19 26 10 14 1018.0 - 0.0
25/09:00am 21.9 19.3 13.3 58 5.0 E 19 28 10 15 1017.8 1016.8 0.0
25/08:30am 20.6 19.8 14.0 66 3.9 E 11 17 6 9 1017.6 - 0.0
25/08:00am 17.8 17.8 13.5 76 2.5 SSE 6 7 3 4 1017.3 - 0.0
25/07:30am 15.7 15.4 12.8 83 1.6 SSE 6 7 3 4 1016.9 - 0.0
25/07:00am 15.9 15.5 13.0 83 1.6 ESE 7 9 4 5 1016.6 - 0.0
25/06:30am 16.1 15.8 13.4 84 1.5 SE 7 9 4 5 1016.3 - 0.0
25/06:00am 16.1 15.5 13.4 84 1.5 ESE 9 11 5 6 1016.3 1015.2 0.0
25/05:30am 15.7 15.4 13.2 85 1.4 E 7 11 4 6 1016.1 - 0.0
25/05:00am 15.8 15.6 13.5 86 1.3 E 7 11 4 6 1016.1 - 0.0
25/04:30am 16.2 16.1 14.0 87 1.3 ESE 7 9 4 5 1016.0 - 0.0
25/04:00am 15.8 15.2 13.6 87 1.3 E 9 13 5 7 1016.0 - 0.0
25/03:30am 15.7 15.4 13.2 85 1.4 ESE 7 9 4 5 1016.0 - 0.0
25/03:00am 16.6 16.6 13.7 83 1.7 E 6 6 3 3 1016.1 1015.0 0.0
25/02:30am 17.7 17.6 14.0 79 2.1 E 7 11 4 6 1016.3 - 0.0
25/02:00am 18.5 18.3 14.6 78 2.3 E 9 13 5 7 1016.2 - 0.0
25/01:30am 18.1 18.4 14.4 79 2.2 E 6 9 3 5 1016.3 - 0.0
25/01:00am 18.5 18.6 14.0 75 2.6 E 6 7 3 4 1016.4 - 0.0
25/12:30am 19.4 19.7 14.6 74 2.8 ESE 6 11 3 6 1016.4 - 0.0
25/12:00am 19.3 19.8 13.9 71 3.1 E 4 9 2 5 1016.6 1015.5 0.0
 
Date/Time
EST
Temp
°C
App
Temp
°C
Dew
Point
°C
Rel
Hum
%
Delta-T
°C
Wind Press
QNH
hPa
Press
MSL
hPa
Rain since
9am
mm
Dir  Spd
km/h
Gust
km/h
Spd
kts
Gust
kts
24/11:30pm 20.1 20.7 14.2 69 3.5 SE 4 7 2 4 1016.6 - 0.0
24/11:00pm 20.4 20.0 14.1 67 3.7 ENE 9 17 5 9 1016.5 - 0.0
24/10:30pm 20.5 19.7 13.9 66 3.9 E 11 15 6 8 1016.5 - 0.0
24/10:00pm 20.3 19.4 13.7 66 3.8 E 11 17 6 9 1016.6 - 0.0
24/09:30pm 20.3 19.5 13.0 63 4.2 ESE 9 13 5 7 1016.6 - 0.0
24/09:00pm 21.2 20.5 13.1 60 4.7 SSE 9 13 5 7 1016.3 1015.2 0.0
24/08:30pm 21.0 20.5 12.7 59 4.8 SE 7 9 4 5 1016.3 - 0.0
24/08:00pm 22.1 21.8 12.6 55 5.5 ESE 6 7 3 4 1015.9 - 0.0
24/07:30pm 22.8 21.9 12.7 53 5.9 ESE 9 13 5 7 1015.6 - 0.0
24/07:00pm 22.9 22.4 12.5 52 6.0 ESE 7 9 4 5 1015.3 - 0.0
24/06:30pm 23.5 23.0 12.5 50 6.4 ESE 7 9 4 5 1015.0 - 0.0
24/06:00pm 24.2 23.7 12.8 49 6.7 ESE 7 11 4 6 1014.8 1013.7 0.0
24/05:30pm 25.2 23.5 12.4 45 7.5 ESE 13 20 7 11 1014.6 - 0.0
24/05:00pm 25.5 24.3 12.7 45 7.5 ENE 11 19 6 10 1014.1 - 0.0
24/04:30pm 25.6 23.8 12.1 43 7.8 ESE 13 22 7 12 1013.8 - 0.0
24/04:00pm 26.5 25.6 12.5 41 8.2 E 9 17 5 9 1013.8 - 0.0
24/03:30pm 25.9 24.2 12.4 43 7.9 SSE 13 20 7 11 1013.9 - 0.0
24/03:00pm 26.8 24.6 12.1 40 8.6 E 15 28 8 15 1014.2 1013.1 0.0
24/02:30pm 25.3 23.5 12.2 44 7.6 ESE 13 22 7 12 1014.7 - 0.0
24/02:00pm 26.9 24.1 12.5 40 8.5 E 19 28 10 15 1015.0 - 0.0
24/01:30pm 25.4 24.0 12.3 44 7.6 ESE 11 20 6 11 1015.4 - 0.0
24/01:00pm 26.3 25.1 12.7 43 8.0 ESE 11 20 6 11 1015.8 - 0.0
24/12:30pm 25.9 23.6 13.1 45 7.6 E 17 24 9 13 1016.5 - 0.0
24/12:00pm 25.3 23.7 12.9 46 7.3 E 13 24 7 13 1016.9 1015.8 0.0
24/11:30am 25.6 23.1 13.5 47 7.2 E 19 32 10 17 1017.2 - 0.0
24/11:00am 24.9 23.0 13.1 48 6.9 ESE 15 24 8 13 1017.5 - 0.0
24/10:30am 23.4 20.6 12.7 51 6.2 ESE 19 26 10 14 1017.7 - 0.0
24/10:00am 23.3 21.3 13.8 55 5.6 ESE 17 28 9 15 1017.7 - 0.0
24/09:30am 22.3 19.8 13.6 58 5.1 E 19 30 10 16 1017.8 - 0.0
24/09:00am 21.8 21.3 13.9 61 4.6 E 9 15 5 8 1017.6 1016.6 0.0
24/08:30am 20.3 19.9 14.0 67 3.7 ESE 9 13 5 7 1017.1 - 0.0
24/08:00am 18.7 18.2 13.8 73 2.8 SE 9 15 5 8 1016.9 - 0.0
24/07:30am 15.9 15.4 12.6 81 1.8 SSE 7 11 4 6 1016.6 - 0.0
24/07:00am 15.2 14.6 12.3 83 1.6 S 7 9 4 5 1016.4 - 0.0
24/06:30am 14.6 14.2 12.5 87 1.2 ESE 6 9 3 5 1016.2 - 0.0
24/06:00am 13.8 13.3 12.2 90 0.9 SSE 6 7 3 4 1015.9 1014.8 0.0
24/05:30am 12.9 12.2 11.5 91 0.8 ESE 6 7 3 4 1015.9 - 0.0
24/05:00am 13.2 13.8 11.9 92 0.7 CALM 0 0 0 0 1015.9 - 0.0
24/04:30am 13.6 12.9 11.3 86 1.2 S 6 7 3 4 1016.0 - 0.0
24/04:00am 14.6 15.3 12.1 85 1.4 CALM 0 0 0 0 1016.1 - 0.0
24/03:30am 16.5 16.2 12.7 78 2.1 ENE 6 9 3 5 1015.9 - 0.0
24/03:00am 16.9 16.1 13.0 78 2.2 E 9 11 5 6 1016.0 1014.9 0.0
24/02:30am 17.5 17.1 13.0 75 2.6 E 7 11 4 6 1016.4 - 0.0
24/02:00am 17.9 17.2 13.2 74 2.7 E 9 13 5 7 1016.5 - 0.0
24/01:30am 18.2 17.2 13.3 73 2.8 E 11 13 6 7 1016.6 - 0.0
24/01:00am 18.8 17.6 13.9 73 2.8 E 13 20 7 11 1016.7 - 0.0
24/12:30am 18.1 17.5 13.4 74 2.7 ESE 9 11 5 6 1016.8 - 0.0
24/12:00am 18.3 17.7 13.4 73 2.8 ESE 9 13 5 7 1016.8 1015.7 0.0

Other Formats:

Comma delimited format used in spreadsheet applications
http://www.bom.gov.au/fwo/IDQ60801/IDQ60801.94274.axf

JavaScript Object Notation format (JSON) in row-major order
http://www.bom.gov.au/fwo/IDQ60801/IDQ60801.94274.json